sensor_id;sensor_type;location;lat;lon;timestamp;temperature;humidity
18733;DHT22;9495;51.210;2.934;2023-04-25T00:00:33;10.40;99.90
18733;DHT22;9495;51.210;2.934;2023-04-25T00:03:01;10.00;99.90
18733;DHT22;9495;51.210;2.934;2023-04-25T00:05:30;9.90;99.90
18733;DHT22;9495;51.210;2.934;2023-04-25T00:07:59;9.80;99.90
18733;DHT22;9495;51.210;2.934;2023-04-25T00:10:28;9.70;99.90
18733;DHT22;9495;51.210;2.934;2023-04-25T00:12:57;9.60;99.90
18733;DHT22;9495;51.210;2.934;2023-04-25T00:15:27;9.50;99.90
18733;DHT22;9495;51.210;2.934;2023-04-25T00:17:57;9.50;99.90
18733;DHT22;9495;51.210;2.934;2023-04-25T00:20:25;9.40;99.90
18733;DHT22;9495;51.210;2.934;2023-04-25T00:22:54;9.50;99.90
18733;DHT22;9495;51.210;2.934;2023-04-25T00:25:22;9.60;99.90
18733;DHT22;9495;51.210;2.934;2023-04-25T00:27:51;9.40;99.90
18733;DHT22;9495;51.210;2.934;2023-04-25T00:30:20;9.30;99.90
18733;DHT22;9495;51.210;2.934;2023-04-25T00:32:49;9.20;99.90
18733;DHT22;9495;51.210;2.934;2023-04-25T00:35:18;9.20;99.90
18733;DHT22;9495;51.210;2.934;2023-04-25T00:37:46;9.30;99.90
18733;DHT22;9495;51.210;2.934;2023-04-25T00:40:15;9.40;99.90
18733;DHT22;9495;51.210;2.934;2023-04-25T00:42:44;9.30;99.90
18733;DHT22;9495;51.210;2.934;2023-04-25T00:45:14;9.30;99.90
18733;DHT22;9495;51.210;2.934;2023-04-25T00:47:43;9.40;99.90
18733;DHT22;9495;51.210;2.934;2023-04-25T00:50:14;9.30;99.90
18733;DHT22;9495;51.210;2.934;2023-04-25T00:52:43;9.30;99.90
18733;DHT22;9495;51.210;2.934;2023-04-25T00:55:12;9.40;99.90
18733;DHT22;9495;51.210;2.934;2023-04-25T00:57:43;9.40;99.90
18733;DHT22;9495;51.210;2.934;2023-04-25T01:00:12;9.30;99.90
18733;DHT22;9495;51.210;2.934;2023-04-25T01:02:42;9.30;99.90
18733;DHT22;9495;51.210;2.934;2023-04-25T01:05:13;9.30;99.90
18733;DHT22;9495;51.210;2.934;2023-04-25T01:07:42;9.40;99.90
18733;DHT22;9495;51.210;2.934;2023-04-25T01:10:10;9.30;99.90
18733;DHT22;9495;51.210;2.934;2023-04-25T01:12:39;9.30;99.90
18733;DHT22;9495;51.210;2.934;2023-04-25T01:15:07;9.20;99.90
18733;DHT22;9495;51.210;2.934;2023-04-25T01:17:36;9.10;99.90
18733;DHT22;9495;51.210;2.934;2023-04-25T01:20:05;9.20;99.90
18733;DHT22;9495;51.210;2.934;2023-04-25T01:22:35;9.20;99.90
18733;DHT22;9495;51.210;2.934;2023-04-25T01:25:05;9.20;99.90
18733;DHT22;9495;51.210;2.934;2023-04-25T01:27:35;9.10;99.90
18733;DHT22;9495;51.210;2.934;2023-04-25T01:30:05;9.00;99.90
18733;DHT22;9495;51.210;2.934;2023-04-25T01:32:35;9.10;99.90
18733;DHT22;9495;51.210;2.934;2023-04-25T01:35:06;9.10;99.90
18733;DHT22;9495;51.210;2.934;2023-04-25T01:37:38;9.50;99.90
18733;DHT22;9495;51.210;2.934;2023-04-25T01:40:08;9.40;99.90
18733;DHT22;9495;51.210;2.934;2023-04-25T01:42:42;9.30;99.90
18733;DHT22;9495;51.210;2.934;2023-04-25T01:45:12;9.20;99.90
18733;DHT22;9495;51.210;2.934;2023-04-25T01:47:40;9.20;99.90
18733;DHT22;9495;51.210;2.934;2023-04-25T01:50:11;9.20;99.90
18733;DHT22;9495;51.210;2.934;2023-04-25T01:52:41;9.10;99.90
18733;DHT22;9495;51.210;2.934;2023-04-25T01:55:09;9.10;99.90
18733;DHT22;9495;51.210;2.934;2023-04-25T01:57:38;9.10;99.90
18733;DHT22;9495;51.210;2.934;2023-04-25T02:00:07;8.90;99.90
18733;DHT22;9495;51.210;2.934;2023-04-25T02:02:37;8.70;99.90
18733;DHT22;9495;51.210;2.934;2023-04-25T02:05:06;8.40;99.90
18733;DHT22;9495;51.210;2.934;2023-04-25T02:07:35;8.40;99.90
18733;DHT22;9495;51.210;2.934;2023-04-25T02:10:05;8.30;99.90
18733;DHT22;9495;51.210;2.934;2023-04-25T02:12:35;8.30;99.90
18733;DHT22;9495;51.210;2.934;2023-04-25T02:15:04;8.40;99.90
18733;DHT22;9495;51.210;2.934;2023-04-25T02:17:32;8.40;99.90
18733;DHT22;9495;51.210;2.934;2023-04-25T02:20:01;8.50;99.90
18733;DHT22;9495;51.210;2.934;2023-04-25T02:22:30;8.50;99.90
18733;DHT22;9495;51.210;2.934;2023-04-25T02:24:58;8.50;99.90
18733;DHT22;9495;51.210;2.934;2023-04-25T02:27:28;8.60;99.90
18733;DHT22;9495;51.210;2.934;2023-04-25T02:29:56;8.60;99.90
18733;DHT22;9495;51.210;2.934;2023-04-25T02:32:24;8.60;99.90
18733;DHT22;9495;51.210;2.934;2023-04-25T02:34:54;8.60;99.90
18733;DHT22;9495;51.210;2.934;2023-04-25T02:37:22;8.60;99.90
18733;DHT22;9495;51.210;2.934;2023-04-25T02:39:50;8.70;99.90
18733;DHT22;9495;51.210;2.934;2023-04-25T02:42:19;8.60;99.90
18733;DHT22;9495;51.210;2.934;2023-04-25T02:44:48;8.70;99.90
18733;DHT22;9495;51.210;2.934;2023-04-25T02:47:17;8.70;99.90
18733;DHT22;9495;51.210;2.934;2023-04-25T02:49:46;8.70;99.90
18733;DHT22;9495;51.210;2.934;2023-04-25T02:52:14;8.60;99.90
18733;DHT22;9495;51.210;2.934;2023-04-25T02:54:43;8.50;99.90
18733;DHT22;9495;51.210;2.934;2023-04-25T02:57:11;8.80;99.90
18733;DHT22;9495;51.210;2.934;2023-04-25T02:59:39;8.70;99.90
18733;DHT22;9495;51.210;2.934;2023-04-25T03:02:09;8.50;99.90
18733;DHT22;9495;51.210;2.934;2023-04-25T03:04:38;8.70;99.90
18733;DHT22;9495;51.210;2.934;2023-04-25T03:07:07;8.50;99.90
18733;DHT22;9495;51.210;2.934;2023-04-25T03:09:35;8.70;99.90
18733;DHT22;9495;51.210;2.934;2023-04-25T03:12:04;8.10;99.90
18733;DHT22;9495;51.210;2.934;2023-04-25T03:14:33;8.20;99.90
18733;DHT22;9495;51.210;2.934;2023-04-25T03:17:01;8.40;99.90
18733;DHT22;9495;51.210;2.934;2023-04-25T03:19:31;9.40;99.90
18733;DHT22;9495;51.210;2.934;2023-04-25T03:22:00;9.00;99.90
18733;DHT22;9495;51.210;2.934;2023-04-25T03:24:28;9.50;99.90
18733;DHT22;9495;51.210;2.934;2023-04-25T03:26:56;11.80;99.90
18733;DHT22;9495;51.210;2.934;2023-04-25T03:29:25;10.20;99.90
18733;DHT22;9495;51.210;2.934;2023-04-25T03:31:54;9.80;99.90
18733;DHT22;9495;51.210;2.934;2023-04-25T03:34:23;10.40;99.90
18733;DHT22;9495;51.210;2.934;2023-04-25T03:36:54;9.50;99.90
18733;DHT22;9495;51.210;2.934;2023-04-25T03:39:22;8.90;99.90
18733;DHT22;9495;51.210;2.934;2023-04-25T03:41:50;8.70;99.90
18733;DHT22;9495;51.210;2.934;2023-04-25T03:44:19;8.80;99.90
18733;DHT22;9495;51.210;2.934;2023-04-25T03:46:47;8.90;99.90
18733;DHT22;9495;51.210;2.934;2023-04-25T03:49:16;8.80;99.90
18733;DHT22;9495;51.210;2.934;2023-04-25T03:51:45;8.60;99.90
18733;DHT22;9495;51.210;2.934;2023-04-25T03:54:15;8.50;99.90
18733;DHT22;9495;51.210;2.934;2023-04-25T03:56:43;8.40;99.90
18733;DHT22;9495;51.210;2.934;2023-04-25T03:59:12;8.30;99.90
18733;DHT22;9495;51.210;2.934;2023-04-25T04:01:40;8.30;99.90
18733;DHT22;9495;51.210;2.934;2023-04-25T04:04:09;8.30;99.90
18733;DHT22;9495;51.210;2.934;2023-04-25T04:06:38;8.20;99.90
18733;DHT22;9495;51.210;2.934;2023-04-25T04:09:07;8.10;99.90
18733;DHT22;9495;51.210;2.934;2023-04-25T04:11:39;8.20;99.90
18733;DHT22;9495;51.210;2.934;2023-04-25T04:14:08;8.20;99.90
18733;DHT22;9495;51.210;2.934;2023-04-25T04:16:37;8.20;99.90
18733;DHT22;9495;51.210;2.934;2023-04-25T04:19:05;8.20;99.90
18733;DHT22;9495;51.210;2.934;2023-04-25T04:21:34;8.20;99.90
18733;DHT22;9495;51.210;2.934;2023-04-25T04:24:03;8.20;99.90
18733;DHT22;9495;51.210;2.934;2023-04-25T04:26:32;8.20;99.90
18733;DHT22;9495;51.210;2.934;2023-04-25T04:29:03;8.20;99.90
18733;DHT22;9495;51.210;2.934;2023-04-25T04:31:31;8.30;99.90
18733;DHT22;9495;51.210;2.934;2023-04-25T04:34:00;8.20;99.90
18733;DHT22;9495;51.210;2.934;2023-04-25T04:36:28;8.20;99.90
18733;DHT22;9495;51.210;2.934;2023-04-25T04:38:57;8.20;99.90
18733;DHT22;9495;51.210;2.934;2023-04-25T04:41:25;8.10;99.90
18733;DHT22;9495;51.210;2.934;2023-04-25T04:43:54;8.20;99.90
18733;DHT22;9495;51.210;2.934;2023-04-25T04:46:24;8.20;99.90
18733;DHT22;9495;51.210;2.934;2023-04-25T04:48:53;8.30;99.90
18733;DHT22;9495;51.210;2.934;2023-04-25T04:51:23;8.20;99.90
18733;DHT22;9495;51.210;2.934;2023-04-25T04:53:52;8.20;99.90
18733;DHT22;9495;51.210;2.934;2023-04-25T04:56:25;8.20;99.90
18733;DHT22;9495;51.210;2.934;2023-04-25T04:58:53;8.20;99.90
18733;DHT22;9495;51.210;2.934;2023-04-25T05:01:22;8.30;99.90
18733;DHT22;9495;51.210;2.934;2023-04-25T05:03:52;8.30;99.90
18733;DHT22;9495;51.210;2.934;2023-04-25T05:06:21;8.30;99.90
18733;DHT22;9495;51.210;2.934;2023-04-25T05:08:50;8.30;99.90
18733;DHT22;9495;51.210;2.934;2023-04-25T05:11:18;8.30;99.90
18733;DHT22;9495;51.210;2.934;2023-04-25T05:13:46;8.20;99.90
18733;DHT22;9495;51.210;2.934;2023-04-25T05:16:15;8.40;99.90
18733;DHT22;9495;51.210;2.934;2023-04-25T05:18:44;8.40;99.90
18733;DHT22;9495;51.210;2.934;2023-04-25T05:21:14;8.40;99.90
18733;DHT22;9495;51.210;2.934;2023-04-25T05:23:42;8.50;99.90
18733;DHT22;9495;51.210;2.934;2023-04-25T05:26:11;8.80;99.90
18733;DHT22;9495;51.210;2.934;2023-04-25T05:28:41;9.10;99.90
18733;DHT22;9495;51.210;2.934;2023-04-25T05:31:10;8.80;99.90
18733;DHT22;9495;51.210;2.934;2023-04-25T05:33:39;8.70;99.90
18733;DHT22;9495;51.210;2.934;2023-04-25T05:36:08;8.70;99.90
18733;DHT22;9495;51.210;2.934;2023-04-25T05:38:37;8.60;99.90
18733;DHT22;9495;51.210;2.934;2023-04-25T05:41:05;8.50;99.90
18733;DHT22;9495;51.210;2.934;2023-04-25T05:43:34;9.10;99.90
18733;DHT22;9495;51.210;2.934;2023-04-25T05:46:02;9.10;99.90
18733;DHT22;9495;51.210;2.934;2023-04-25T05:48:31;8.70;99.90
18733;DHT22;9495;51.210;2.934;2023-04-25T05:51:00;8.70;99.90
18733;DHT22;9495;51.210;2.934;2023-04-25T05:53:28;8.60;99.90
18733;DHT22;9495;51.210;2.934;2023-04-25T05:55:58;8.50;99.90
18733;DHT22;9495;51.210;2.934;2023-04-25T05:58:26;8.60;99.90
18733;DHT22;9495;51.210;2.934;2023-04-25T06:00:55;8.80;99.90
18733;DHT22;9495;51.210;2.934;2023-04-25T06:03:23;8.70;99.90
18733;DHT22;9495;51.210;2.934;2023-04-25T06:05:52;8.50;99.90
18733;DHT22;9495;51.210;2.934;2023-04-25T06:08:21;8.60;99.90
18733;DHT22;9495;51.210;2.934;2023-04-25T06:10:49;8.40;99.90
18733;DHT22;9495;51.210;2.934;2023-04-25T06:13:19;8.60;99.90
18733;DHT22;9495;51.210;2.934;2023-04-25T06:15:48;8.70;99.90
18733;DHT22;9495;51.210;2.934;2023-04-25T06:18:16;8.60;99.90
18733;DHT22;9495;51.210;2.934;2023-04-25T06:20:45;9.00;99.90
18733;DHT22;9495;51.210;2.934;2023-04-25T06:23:13;8.80;99.90
18733;DHT22;9495;51.210;2.934;2023-04-25T06:25:42;8.70;99.90
18733;DHT22;9495;51.210;2.934;2023-04-25T06:28:10;8.80;99.90
18733;DHT22;9495;51.210;2.934;2023-04-25T06:30:40;8.70;99.90
18733;DHT22;9495;51.210;2.934;2023-04-25T06:33:08;8.60;99.90
18733;DHT22;9495;51.210;2.934;2023-04-25T06:35:37;8.80;99.90
18733;DHT22;9495;51.210;2.934;2023-04-25T06:38:05;9.40;99.90
18733;DHT22;9495;51.210;2.934;2023-04-25T06:40:34;8.70;99.90
18733;DHT22;9495;51.210;2.934;2023-04-25T06:43:03;8.90;99.90
18733;DHT22;9495;51.210;2.934;2023-04-25T06:45:31;8.70;99.90
18733;DHT22;9495;51.210;2.934;2023-04-25T06:48:01;8.80;99.90
18733;DHT22;9495;51.210;2.934;2023-04-25T06:50:30;8.40;99.90
18733;DHT22;9495;51.210;2.934;2023-04-25T06:52:58;8.60;99.90
18733;DHT22;9495;51.210;2.934;2023-04-25T06:55:28;8.80;99.90
18733;DHT22;9495;51.210;2.934;2023-04-25T06:57:57;8.90;99.90
18733;DHT22;9495;51.210;2.934;2023-04-25T07:00:26;9.00;99.90
18733;DHT22;9495;51.210;2.934;2023-04-25T07:02:55;10.10;99.90
18733;DHT22;9495;51.210;2.934;2023-04-25T07:05:26;9.30;99.90
18733;DHT22;9495;51.210;2.934;2023-04-25T07:07:54;9.30;99.90
18733;DHT22;9495;51.210;2.934;2023-04-25T07:10:22;10.40;99.90
18733;DHT22;9495;51.210;2.934;2023-04-25T07:12:51;9.70;99.90
18733;DHT22;9495;51.210;2.934;2023-04-25T07:15:19;9.50;99.90
18733;DHT22;9495;51.210;2.934;2023-04-25T07:17:48;9.40;99.90
18733;DHT22;9495;51.210;2.934;2023-04-25T07:20:16;9.00;99.90
18733;DHT22;9495;51.210;2.934;2023-04-25T07:22:46;9.40;99.90
18733;DHT22;9495;51.210;2.934;2023-04-25T07:25:14;10.00;99.90
18733;DHT22;9495;51.210;2.934;2023-04-25T07:27:43;9.60;99.90
18733;DHT22;9495;51.210;2.934;2023-04-25T07:30:12;9.40;99.90
18733;DHT22;9495;51.210;2.934;2023-04-25T07:32:40;9.30;99.90
18733;DHT22;9495;51.210;2.934;2023-04-25T07:35:09;9.20;99.90
18733;DHT22;9495;51.210;2.934;2023-04-25T07:37:37;9.40;99.90
18733;DHT22;9495;51.210;2.934;2023-04-25T07:40:08;10.00;99.90
18733;DHT22;9495;51.210;2.934;2023-04-25T07:42:37;9.30;99.90
18733;DHT22;9495;51.210;2.934;2023-04-25T07:45:07;9.40;99.90
18733;DHT22;9495;51.210;2.934;2023-04-25T07:47:36;9.60;99.90
18733;DHT22;9495;51.210;2.934;2023-04-25T07:50:06;9.40;99.90
18733;DHT22;9495;51.210;2.934;2023-04-25T07:52:34;9.40;99.90
18733;DHT22;9495;51.210;2.934;2023-04-25T07:55:03;9.30;99.90
18733;DHT22;9495;51.210;2.934;2023-04-25T07:57:34;9.10;99.90
18733;DHT22;9495;51.210;2.934;2023-04-25T08:00:03;9.70;99.90
18733;DHT22;9495;51.210;2.934;2023-04-25T08:02:36;11.30;99.90
18733;DHT22;9495;51.210;2.934;2023-04-25T08:05:04;9.70;99.90
18733;DHT22;9495;51.210;2.934;2023-04-25T08:07:35;9.40;99.90
18733;DHT22;9495;51.210;2.934;2023-04-25T08:10:04;11.50;99.90
18733;DHT22;9495;51.210;2.934;2023-04-25T08:12:35;12.80;99.90
18733;DHT22;9495;51.210;2.934;2023-04-25T08:15:05;10.80;99.90
18733;DHT22;9495;51.210;2.934;2023-04-25T08:17:33;9.70;99.90
18733;DHT22;9495;51.210;2.934;2023-04-25T08:20:02;9.90;99.90
18733;DHT22;9495;51.210;2.934;2023-04-25T08:22:32;9.60;99.90
18733;DHT22;9495;51.210;2.934;2023-04-25T08:25:02;10.60;99.90
18733;DHT22;9495;51.210;2.934;2023-04-25T08:27:30;12.20;99.90
18733;DHT22;9495;51.210;2.934;2023-04-25T08:30:00;11.30;99.90
18733;DHT22;9495;51.210;2.934;2023-04-25T08:32:30;11.60;99.90
18733;DHT22;9495;51.210;2.934;2023-04-25T08:34:58;10.50;99.90
18733;DHT22;9495;51.210;2.934;2023-04-25T08:37:27;11.10;99.90
18733;DHT22;9495;51.210;2.934;2023-04-25T08:39:55;10.20;99.90
18733;DHT22;9495;51.210;2.934;2023-04-25T08:42:24;11.00;99.90
18733;DHT22;9495;51.210;2.934;2023-04-25T08:44:55;10.10;99.90
18733;DHT22;9495;51.210;2.934;2023-04-25T08:47:27;12.30;99.90
18733;DHT22;9495;51.210;2.934;2023-04-25T08:49:56;11.80;99.90
18733;DHT22;9495;51.210;2.934;2023-04-25T08:52:28;12.40;99.90
18733;DHT22;9495;51.210;2.934;2023-04-25T08:54:58;12.00;99.90
18733;DHT22;9495;51.210;2.934;2023-04-25T08:57:29;10.90;99.90
18733;DHT22;9495;51.210;2.934;2023-04-25T08:59:58;10.50;99.90
18733;DHT22;9495;51.210;2.934;2023-04-25T09:02:29;11.40;99.90
18733;DHT22;9495;51.210;2.934;2023-04-25T09:04:58;12.20;99.90
18733;DHT22;9495;51.210;2.934;2023-04-25T09:07:27;11.90;99.90
18733;DHT22;9495;51.210;2.934;2023-04-25T09:09:55;11.50;99.90
18733;DHT22;9495;51.210;2.934;2023-04-25T09:12:26;11.60;99.90
18733;DHT22;9495;51.210;2.934;2023-04-25T09:15:03;11.10;99.90
18733;DHT22;9495;51.210;2.934;2023-04-25T09:17:35;12.60;99.90
18733;DHT22;9495;51.210;2.934;2023-04-25T09:20:09;11.70;99.90
18733;DHT22;9495;51.210;2.934;2023-04-25T09:22:38;11.40;99.90
18733;DHT22;9495;51.210;2.934;2023-04-25T09:25:10;10.90;99.90
18733;DHT22;9495;51.210;2.934;2023-04-25T09:27:49;10.60;99.90
18733;DHT22;9495;51.210;2.934;2023-04-25T09:30:29;10.60;99.90
18733;DHT22;9495;51.210;2.934;2023-04-25T09:33:04;10.40;99.90
18733;DHT22;9495;51.210;2.934;2023-04-25T09:35:36;11.80;99.90
18733;DHT22;9495;51.210;2.934;2023-04-25T09:38:10;11.90;99.90
18733;DHT22;9495;51.210;2.934;2023-04-25T09:40:40;11.00;99.90
18733;DHT22;9495;51.210;2.934;2023-04-25T09:43:18;10.50;99.90
18733;DHT22;9495;51.210;2.934;2023-04-25T09:45:48;10.50;99.90
18733;DHT22;9495;51.210;2.934;2023-04-25T09:48:21;10.40;99.90
18733;DHT22;9495;51.210;2.934;2023-04-25T09:51:04;11.20;99.90
18733;DHT22;9495;51.210;2.934;2023-04-25T09:53:33;11.40;99.90
18733;DHT22;9495;51.210;2.934;2023-04-25T09:56:04;10.70;99.90
18733;DHT22;9495;51.210;2.934;2023-04-25T09:58:34;10.80;99.90
18733;DHT22;9495;51.210;2.934;2023-04-25T10:01:03;10.60;99.90
18733;DHT22;9495;51.210;2.934;2023-04-25T10:03:35;10.60;99.90
18733;DHT22;9495;51.210;2.934;2023-04-25T10:06:07;10.90;99.90
18733;DHT22;9495;51.210;2.934;2023-04-25T10:08:39;11.80;99.90
18733;DHT22;9495;51.210;2.934;2023-04-25T10:11:08;12.10;99.90
18733;DHT22;9495;51.210;2.934;2023-04-25T10:13:37;11.10;99.90
18733;DHT22;9495;51.210;2.934;2023-04-25T10:16:05;10.70;99.90
18733;DHT22;9495;51.210;2.934;2023-04-25T10:18:35;10.60;99.90
18733;DHT22;9495;51.210;2.934;2023-04-25T10:21:05;10.90;99.90
18733;DHT22;9495;51.210;2.934;2023-04-25T10:23:34;11.60;99.90
18733;DHT22;9495;51.210;2.934;2023-04-25T10:26:05;11.00;99.90
18733;DHT22;9495;51.210;2.934;2023-04-25T10:28:55;10.90;99.90
18733;DHT22;9495;51.210;2.934;2023-04-25T10:31:24;10.80;99.90
18733;DHT22;9495;51.210;2.934;2023-04-25T10:33:55;11.10;99.90
18733;DHT22;9495;51.210;2.934;2023-04-25T10:36:24;10.90;99.90
18733;DHT22;9495;51.210;2.934;2023-04-25T10:38:54;11.10;99.90
18733;DHT22;9495;51.210;2.934;2023-04-25T10:41:22;11.70;99.90
18733;DHT22;9495;51.210;2.934;2023-04-25T10:43:59;11.40;99.90
18733;DHT22;9495;51.210;2.934;2023-04-25T10:46:29;11.50;99.90
18733;DHT22;9495;51.210;2.934;2023-04-25T10:49:01;11.90;99.90
18733;DHT22;9495;51.210;2.934;2023-04-25T10:51:31;12.00;99.90
18733;DHT22;9495;51.210;2.934;2023-04-25T10:54:22;11.30;99.90
18733;DHT22;9495;51.210;2.934;2023-04-25T10:56:53;11.60;99.90
18733;DHT22;9495;51.210;2.934;2023-04-25T10:59:25;11.60;99.90
18733;DHT22;9495;51.210;2.934;2023-04-25T11:01:53;11.60;99.90
18733;DHT22;9495;51.210;2.934;2023-04-25T11:04:25;11.40;99.90
18733;DHT22;9495;51.210;2.934;2023-04-25T11:07:11;11.40;99.90
18733;DHT22;9495;51.210;2.934;2023-04-25T11:09:41;10.90;99.90
18733;DHT22;9495;51.210;2.934;2023-04-25T11:12:10;11.10;99.90
18733;DHT22;9495;51.210;2.934;2023-04-25T11:14:42;11.90;99.90
18733;DHT22;9495;51.210;2.934;2023-04-25T11:17:11;11.10;99.90
18733;DHT22;9495;51.210;2.934;2023-04-25T11:19:40;10.60;99.90
18733;DHT22;9495;51.210;2.934;2023-04-25T11:22:10;10.20;99.90
18733;DHT22;9495;51.210;2.934;2023-04-25T11:24:40;10.30;99.90
18733;DHT22;9495;51.210;2.934;2023-04-25T11:27:09;9.60;99.90
18733;DHT22;9495;51.210;2.934;2023-04-25T11:29:37;10.00;99.90
18733;DHT22;9495;51.210;2.934;2023-04-25T11:32:06;10.00;99.90
18733;DHT22;9495;51.210;2.934;2023-04-25T11:34:34;9.60;99.90
18733;DHT22;9495;51.210;2.934;2023-04-25T11:37:04;10.00;99.90
18733;DHT22;9495;51.210;2.934;2023-04-25T11:39:33;9.90;99.90
18733;DHT22;9495;51.210;2.934;2023-04-25T11:42:04;10.50;99.90
18733;DHT22;9495;51.210;2.934;2023-04-25T11:44:40;11.20;99.90
18733;DHT22;9495;51.210;2.934;2023-04-25T11:47:09;11.50;99.90
18733;DHT22;9495;51.210;2.934;2023-04-25T11:49:37;12.30;99.90
18733;DHT22;9495;51.210;2.934;2023-04-25T11:52:08;12.70;99.90
18733;DHT22;9495;51.210;2.934;2023-04-25T11:54:36;11.30;99.90
18733;DHT22;9495;51.210;2.934;2023-04-25T11:57:05;12.90;99.90
18733;DHT22;9495;51.210;2.934;2023-04-25T11:59:33;11.50;99.90
18733;DHT22;9495;51.210;2.934;2023-04-25T12:02:02;11.00;99.90
18733;DHT22;9495;51.210;2.934;2023-04-25T12:04:31;10.80;99.90
18733;DHT22;9495;51.210;2.934;2023-04-25T12:07:01;11.10;99.90
18733;DHT22;9495;51.210;2.934;2023-04-25T12:09:32;11.80;99.90
18733;DHT22;9495;51.210;2.934;2023-04-25T12:12:01;11.10;99.90
18733;DHT22;9495;51.210;2.934;2023-04-25T12:14:32;11.10;99.90
18733;DHT22;9495;51.210;2.934;2023-04-25T12:17:01;11.40;99.90
18733;DHT22;9495;51.210;2.934;2023-04-25T12:19:34;11.40;99.90
18733;DHT22;9495;51.210;2.934;2023-04-25T12:22:07;10.90;99.90
18733;DHT22;9495;51.210;2.934;2023-04-25T12:24:47;11.50;99.90
18733;DHT22;9495;51.210;2.934;2023-04-25T12:27:17;12.80;99.90
18733;DHT22;9495;51.210;2.934;2023-04-25T12:29:51;11.80;99.90
18733;DHT22;9495;51.210;2.934;2023-04-25T12:32:20;12.00;99.90
18733;DHT22;9495;51.210;2.934;2023-04-25T12:34:48;12.90;99.90
18733;DHT22;9495;51.210;2.934;2023-04-25T12:37:17;11.90;99.90
18733;DHT22;9495;51.210;2.934;2023-04-25T12:39:47;12.00;99.90
18733;DHT22;9495;51.210;2.934;2023-04-25T12:42:15;12.70;99.90
18733;DHT22;9495;51.210;2.934;2023-04-25T12:44:43;11.90;99.90
18733;DHT22;9495;51.210;2.934;2023-04-25T12:47:13;11.70;99.90
18733;DHT22;9495;51.210;2.934;2023-04-25T12:49:42;11.30;99.90
18733;DHT22;9495;51.210;2.934;2023-04-25T12:52:10;12.20;99.90
18733;DHT22;9495;51.210;2.934;2023-04-25T12:54:39;13.90;99.90
18733;DHT22;9495;51.210;2.934;2023-04-25T12:57:09;14.50;99.90
18733;DHT22;9495;51.210;2.934;2023-04-25T12:59:38;15.10;99.90
18733;DHT22;9495;51.210;2.934;2023-04-25T13:02:06;12.50;99.90
18733;DHT22;9495;51.210;2.934;2023-04-25T13:04:35;11.90;99.90
18733;DHT22;9495;51.210;2.934;2023-04-25T13:07:03;13.10;99.90
18733;DHT22;9495;51.210;2.934;2023-04-25T13:09:32;12.30;99.90
18733;DHT22;9495;51.210;2.934;2023-04-25T13:12:00;12.80;99.90
18733;DHT22;9495;51.210;2.934;2023-04-25T13:14:30;12.00;99.90
18733;DHT22;9495;51.210;2.934;2023-04-25T13:16:59;12.00;99.90
18733;DHT22;9495;51.210;2.934;2023-04-25T13:19:27;12.50;99.90
18733;DHT22;9495;51.210;2.934;2023-04-25T13:21:56;12.00;99.90
18733;DHT22;9495;51.210;2.934;2023-04-25T13:24:26;11.60;99.90
18733;DHT22;9495;51.210;2.934;2023-04-25T13:26:54;11.70;99.90
18733;DHT22;9495;51.210;2.934;2023-04-25T13:29:23;12.00;99.90
18733;DHT22;9495;51.210;2.934;2023-04-25T13:31:53;14.00;99.90
18733;DHT22;9495;51.210;2.934;2023-04-25T13:34:22;14.00;99.90
18733;DHT22;9495;51.210;2.934;2023-04-25T13:36:50;13.80;99.90
18733;DHT22;9495;51.210;2.934;2023-04-25T13:39:19;14.00;99.90
18733;DHT22;9495;51.210;2.934;2023-04-25T13:41:48;12.10;99.90
18733;DHT22;9495;51.210;2.934;2023-04-25T13:44:16;11.50;99.90
18733;DHT22;9495;51.210;2.934;2023-04-25T13:46:45;11.20;99.90
18733;DHT22;9495;51.210;2.934;2023-04-25T13:49:15;10.70;99.90
18733;DHT22;9495;51.210;2.934;2023-04-25T13:51:44;11.00;99.90
18733;DHT22;9495;51.210;2.934;2023-04-25T13:54:12;11.00;99.90
18733;DHT22;9495;51.210;2.934;2023-04-25T13:56:41;11.30;99.90
18733;DHT22;9495;51.210;2.934;2023-04-25T13:59:09;11.70;99.90
18733;DHT22;9495;51.210;2.934;2023-04-25T14:01:38;12.70;99.90
18733;DHT22;9495;51.210;2.934;2023-04-25T14:04:07;13.60;99.90
18733;DHT22;9495;51.210;2.934;2023-04-25T14:06:37;12.60;99.90
18733;DHT22;9495;51.210;2.934;2023-04-25T14:09:05;12.40;99.90
18733;DHT22;9495;51.210;2.934;2023-04-25T14:11:37;11.90;99.90
18733;DHT22;9495;51.210;2.934;2023-04-25T14:14:05;11.50;99.90
18733;DHT22;9495;51.210;2.934;2023-04-25T14:16:34;11.30;99.90
18733;DHT22;9495;51.210;2.934;2023-04-25T14:19:02;11.30;99.90
18733;DHT22;9495;51.210;2.934;2023-04-25T14:21:31;11.50;99.90
18733;DHT22;9495;51.210;2.934;2023-04-25T14:24:01;11.50;99.90
18733;DHT22;9495;51.210;2.934;2023-04-25T14:26:30;13.20;99.90
18733;DHT22;9495;51.210;2.934;2023-04-25T14:28:58;12.80;99.90
18733;DHT22;9495;51.210;2.934;2023-04-25T14:31:27;13.70;99.90
18733;DHT22;9495;51.210;2.934;2023-04-25T14:33:55;13.30;99.90
18733;DHT22;9495;51.210;2.934;2023-04-25T14:36:26;11.80;99.90
18733;DHT22;9495;51.210;2.934;2023-04-25T14:38:56;11.70;99.90
18733;DHT22;9495;51.210;2.934;2023-04-25T14:41:26;12.00;99.90
18733;DHT22;9495;51.210;2.934;2023-04-25T14:43:54;13.60;99.90
18733;DHT22;9495;51.210;2.934;2023-04-25T14:46:23;12.60;99.90
18733;DHT22;9495;51.210;2.934;2023-04-25T14:48:53;11.70;99.90
18733;DHT22;9495;51.210;2.934;2023-04-25T14:51:23;11.50;99.90
18733;DHT22;9495;51.210;2.934;2023-04-25T14:53:51;11.60;99.90
18733;DHT22;9495;51.210;2.934;2023-04-25T14:56:20;12.20;99.90
18733;DHT22;9495;51.210;2.934;2023-04-25T14:58:50;11.30;99.90
18733;DHT22;9495;51.210;2.934;2023-04-25T15:01:18;11.90;99.90
18733;DHT22;9495;51.210;2.934;2023-04-25T15:03:49;13.50;99.90
18733;DHT22;9495;51.210;2.934;2023-04-25T15:06:18;12.00;99.90
18733;DHT22;9495;51.210;2.934;2023-04-25T15:08:47;10.90;99.90
18733;DHT22;9495;51.210;2.934;2023-04-25T15:11:15;11.00;99.90
18733;DHT22;9495;51.210;2.934;2023-04-25T15:13:44;12.40;99.90
18733;DHT22;9495;51.210;2.934;2023-04-25T15:16:13;11.60;99.90
18733;DHT22;9495;51.210;2.934;2023-04-25T15:18:42;11.20;99.90
18733;DHT22;9495;51.210;2.934;2023-04-25T15:21:10;11.00;99.90
18733;DHT22;9495;51.210;2.934;2023-04-25T15:23:39;12.00;99.90
18733;DHT22;9495;51.210;2.934;2023-04-25T15:26:07;11.80;99.90
18733;DHT22;9495;51.210;2.934;2023-04-25T15:28:36;11.20;99.90
18733;DHT22;9495;51.210;2.934;2023-04-25T15:31:05;11.30;99.90
18733;DHT22;9495;51.210;2.934;2023-04-25T15:33:35;10.90;99.90
18733;DHT22;9495;51.210;2.934;2023-04-25T15:36:04;11.40;99.90
18733;DHT22;9495;51.210;2.934;2023-04-25T15:38:32;11.30;99.90
18733;DHT22;9495;51.210;2.934;2023-04-25T15:41:00;10.70;99.90
18733;DHT22;9495;51.210;2.934;2023-04-25T15:43:31;10.80;99.90
18733;DHT22;9495;51.210;2.934;2023-04-25T15:46:02;11.20;99.90
18733;DHT22;9495;51.210;2.934;2023-04-25T15:48:31;11.10;99.90
18733;DHT22;9495;51.210;2.934;2023-04-25T15:51:01;13.60;99.90
18733;DHT22;9495;51.210;2.934;2023-04-25T15:53:29;13.60;99.90
18733;DHT22;9495;51.210;2.934;2023-04-25T15:55:58;13.80;99.90
18733;DHT22;9495;51.210;2.934;2023-04-25T15:58:26;11.70;99.90
18733;DHT22;9495;51.210;2.934;2023-04-25T16:00:55;11.70;99.90
18733;DHT22;9495;51.210;2.934;2023-04-25T16:03:23;11.70;99.90
18733;DHT22;9495;51.210;2.934;2023-04-25T16:05:52;11.00;99.90
18733;DHT22;9495;51.210;2.934;2023-04-25T16:08:22;10.90;99.90